Time;durP1;ratioP1;P1;durP2;ratioP2;P2;SDS_P1;SDS_P2;PMS_P1;PMS_P2;Temp;Humidity;BMP_temperature;BMP_pressure;BME280_temperature;BME280_humidity;BME280_pressure;Samples;Min_cycle;Max_cycle;Signal;HPM_P1;HPM_P2
2022/07/03 00:01:55;;;;;;;8.47;3.50;;;19.00;99.90;;;;;;5023761;28;20282;-68
2022/07/03 00:04:22;;;;;;;6.87;3.47;;;19.00;99.90;;;;;;5017710;28;20678;-68
2022/07/03 00:06:49;;;;;;;6.70;3.50;;;19.00;99.90;;;;;;5029910;28;20207;-68
2022/07/03 00:09:16;;;;;;;5.80;3.53;;;18.90;99.90;;;;;;5030072;28;20203;-67
2022/07/03 00:11:44;;;;;;;6.40;3.20;;;18.90;99.90;;;;;;5029677;28;20210;-69
2022/07/03 00:14:11;;;;;;;7.17;3.07;;;18.90;99.90;;;;;;5023659;28;20703;-68
2022/07/03 00:16:38;;;;;;;8.10;3.40;;;18.80;99.90;;;;;;5010172;28;20290;-67
2022/07/03 00:19:06;;;;;;;6.40;3.10;;;18.80;99.90;;;;;;5010393;28;20213;-68
2022/07/03 00:21:36;;;;;;;4.67;3.07;;;18.80;99.90;;;;;;5010030;28;20206;-66
2022/07/03 00:24:05;;;;;;;5.60;3.10;;;18.80;99.90;;;;;;5026196;28;20201;-67
2022/07/03 00:26:35;;;;;;;6.90;2.93;;;18.70;99.90;;;;;;5011072;28;20703;-67
2022/07/03 00:29:04;;;;;;;4.70;3.10;;;18.70;99.90;;;;;;5024259;28;20209;-67
2022/07/03 00:31:34;;;;;;;7.50;3.40;;;18.70;99.90;;;;;;5029652;28;20210;-67
2022/07/03 00:34:01;;;;;;;4.43;2.83;;;18.60;99.90;;;;;;5029294;28;20232;-67
2022/07/03 00:36:33;;;;;;;4.90;2.83;;;18.60;99.90;;;;;;5009557;28;20264;-67
2022/07/03 00:39:01;;;;;;;7.10;3.07;;;18.60;99.90;;;;;;5010054;28;20233;-66
2022/07/03 00:41:29;;;;;;;4.97;2.90;;;18.60;99.90;;;;;;5008555;28;20287;-68
2022/07/03 00:43:56;;;;;;;6.40;2.80;;;18.60;99.90;;;;;;5012110;28;20211;-67
2022/07/03 00:46:27;;;;;;;3.33;2.67;;;18.50;99.90;;;;;;5013338;28;20201;-68
2022/07/03 00:48:55;;;;;;;5.13;2.67;;;18.50;99.90;;;;;;5011366;28;20209;-67
2022/07/03 00:51:24;;;;;;;6.33;2.67;;;18.50;99.90;;;;;;5009511;28;20227;-68
2022/07/03 00:53:53;;;;;;;5.00;2.87;;;18.50;99.90;;;;;;5009501;28;20225;-68
2022/07/03 00:56:24;;;;;;;4.03;2.87;;;18.40;99.90;;;;;;5009298;28;20298;-68
2022/07/03 00:58:54;;;;;;;4.77;2.90;;;18.50;99.90;;;;;;5011431;28;20293;-67
2022/07/03 01:01:22;;;;;;;5.17;2.90;;;18.40;99.90;;;;;;5009031;28;20215;-68
2022/07/03 01:04:02;;;;;;;5.67;2.80;;;18.40;99.90;;;;;;5009510;28;20299;-69
2022/07/03 01:06:34;;;;;;;4.30;2.70;;;18.40;99.90;;;;;;5009375;28;20281;-68
2022/07/03 01:09:04;;;;;;;7.10;2.87;;;18.40;99.90;;;;;;5009546;28;20670;-67
2022/07/03 01:11:38;;;;;;;4.33;2.80;;;18.40;99.90;;;;;;5020612;28;20209;-68
2022/07/03 01:14:16;;;;;;;5.37;2.87;;;18.40;99.90;;;;;;5027744;28;20222;-68
2022/07/03 01:16:53;;;;;;;5.77;3.00;;;18.40;99.90;;;;;;5029216;28;20201;-67
2022/07/03 01:19:36;;;;;;;4.27;2.70;;;18.40;99.90;;;;;;5025906;28;20248;-69
2022/07/03 01:22:28;;;;;;;6.30;3.10;;;18.30;99.90;;;;;;5010562;28;20204;-67
2022/07/03 01:25:24;;;;;;;5.07;3.10;;;18.30;99.90;;;;;;5009471;28;20278;-67
2022/07/03 01:28:03;;;;;;;5.53;3.07;;;18.30;99.90;;;;;;5009089;28;20189;-68
2022/07/03 01:30:32;;;;;;;3.93;2.80;;;18.30;99.90;;;;;;5007259;28;20205;-68
2022/07/03 01:33:03;;;;;;;5.63;2.87;;;18.20;99.90;;;;;;5008920;28;20947;-67
2022/07/03 01:35:35;;;;;;;6.40;3.00;;;18.20;99.90;;;;;;5008322;28;20362;-68
2022/07/03 01:38:05;;;;;;;6.40;2.93;;;18.20;99.90;;;;;;5009187;28;20205;-68
2022/07/03 01:40:34;;;;;;;3.43;2.70;;;18.20;99.90;;;;;;5008649;28;20203;-67
2022/07/03 01:43:05;;;;;;;3.70;2.53;;;18.10;99.90;;;;;;5008728;28;20220;-68
2022/07/03 01:45:35;;;;;;;5.07;2.47;;;18.10;99.90;;;;;;5011251;28;20556;-70
2022/07/03 01:48:05;;;;;;;6.80;2.80;;;18.10;99.90;;;;;;5022274;28;20587;-67
2022/07/03 01:50:33;;;;;;;4.33;2.77;;;18.10;99.90;;;;;;5028536;28;20235;-68
2022/07/03 01:53:03;;;;;;;3.80;2.43;;;18.10;99.90;;;;;;5028758;28;20299;-68
2022/07/03 01:55:32;;;;;;;4.03;2.60;;;18.10;99.90;;;;;;5028657;28;20232;-66
2022/07/03 01:58:00;;;;;;;4.53;2.67;;;18.10;99.90;;;;;;5019641;28;20239;-67
2022/07/03 02:00:29;;;;;;;6.67;2.70;;;18.10;99.90;;;;;;5026160;28;20216;-68
2022/07/03 02:03:02;;;;;;;4.83;3.27;;;18.10;99.90;;;;;;5028700;28;20291;-68
2022/07/03 02:05:40;;;;;;;5.37;2.73;;;18.00;99.90;;;;;;5028467;28;20966;-68
2022/07/03 02:08:13;;;;;;;3.27;2.50;;;18.00;99.90;;;;;;5028101;28;20211;-67
2022/07/03 02:10:45;;;;;;;5.57;2.70;;;18.00;99.90;;;;;;5027421;28;20279;-68
2022/07/03 02:13:18;;;;;;;5.47;2.60;;;18.00;99.90;;;;;;5014554;28;20217;-67
2022/07/03 02:15:50;;;;;;;5.10;2.67;;;18.00;99.90;;;;;;5008446;28;20252;-68
2022/07/03 02:18:27;;;;;;;5.20;2.90;;;18.10;99.90;;;;;;5008544;28;20197;-68
2022/07/03 02:21:03;;;;;;;4.70;2.57;;;18.20;99.90;;;;;;5008517;28;20192;-69
2022/07/03 02:23:33;;;;;;;4.37;2.53;;;18.20;99.90;;;;;;5017350;28;20201;-68
2022/07/03 02:26:04;;;;;;;4.80;2.50;;;18.30;99.90;;;;;;5031851;28;20208;-69
2022/07/03 02:28:41;;;;;;;6.03;2.30;;;18.40;99.90;;;;;;5018191;28;20644;-69
2022/07/03 02:31:15;;;;;;;5.70;2.40;;;18.50;99.90;;;;;;5011620;28;20199;-69
2022/07/03 02:33:44;;;;;;;3.50;2.30;;;18.70;99.90;;;;;;5013755;28;20329;-68
2022/07/03 02:36:12;;;;;;;3.03;2.40;;;18.80;99.90;;;;;;5011806;28;20214;-68
2022/07/03 02:38:43;;;;;;;7.83;2.70;;;18.90;99.90;;;;;;5011834;28;20205;-69
2022/07/03 02:41:15;;;;;;;4.07;2.23;;;19.00;99.90;;;;;;5011444;28;20194;-68
2022/07/03 02:43:52;;;;;;;4.20;2.60;;;19.10;99.90;;;;;;5014432;28;20205;-69
2022/07/03 02:46:49;;;;;;;3.27;2.30;;;19.30;99.90;;;;;;5011101;28;20296;-69
2022/07/03 02:49:28;;;;;;;3.97;2.37;;;19.40;99.90;;;;;;5011602;28;20195;-67
2022/07/03 02:52:15;;;;;;;3.57;2.40;;;19.50;99.90;;;;;;5011702;28;20282;-68
2022/07/03 02:54:46;;;;;;;6.10;2.50;;;19.60;99.90;;;;;;5011549;28;20240;-72
2022/07/03 02:57:16;;;;;;;5.93;2.50;;;19.70;99.90;;;;;;5011280;28;20207;-68
2022/07/03 02:59:58;;;;;;;6.00;2.27;;;19.80;99.90;;;;;;5011163;28;20689;-67
2022/07/03 03:02:53;;;;;;;3.67;2.23;;;19.90;99.90;;;;;;5012456;28;20207;-68
2022/07/03 03:05:27;;;;;;;4.57;2.30;;;20.00;99.90;;;;;;5015482;28;20206;-68
2022/07/03 03:08:04;;;;;;;5.40;2.23;;;20.20;99.90;;;;;;5028081;28;20210;-69
2022/07/03 03:10:36;;;;;;;2.67;1.90;;;20.30;99.90;;;;;;5031203;28;20222;-68
2022/07/03 03:13:05;;;;;;;5.00;2.07;;;20.40;99.90;;;;;;5030964;28;20186;-69
2022/07/03 03:15:33;;;;;;;2.37;2.10;;;20.50;99.90;;;;;;5029436;28;20226;-69
2022/07/03 03:18:05;;;;;;;2.80;2.00;;;20.60;99.80;;;;;;5029310;28;20296;-68
2022/07/03 03:20:34;;;;;;;4.00;2.20;;;20.60;99.60;;;;;;5030983;28;20192;-69
2022/07/03 03:23:22;;;;;;;4.23;2.00;;;20.70;99.40;;;;;;5030368;28;20306;-68
2022/07/03 03:25:49;;;;;;;4.43;2.23;;;20.80;99.40;;;;;;5030650;28;20183;-67
2022/07/03 03:28:15;;;;;;;6.37;2.60;;;20.90;99.20;;;;;;5028307;28;20262;-68
2022/07/03 03:30:42;;;;;;;5.97;2.23;;;20.90;99.00;;;;;;5029350;28;20593;-69
2022/07/03 03:33:11;;;;;;;5.20;2.30;;;21.00;98.90;;;;;;5029590;28;20234;-70
2022/07/03 03:35:39;;;;;;;4.07;2.13;;;21.10;98.90;;;;;;5030595;28;20305;-67
2022/07/03 03:38:06;;;;;;;2.50;2.03;;;21.20;99.00;;;;;;5030478;28;20211;-69
2022/07/03 03:40:34;;;;;;;5.37;2.40;;;21.20;98.90;;;;;;5020254;28;20577;-68
2022/07/03 03:43:01;;;;;;;5.03;2.60;;;21.30;98.90;;;;;;5010648;28;20217;-68
2022/07/03 03:45:28;;;;;;;4.43;2.13;;;21.40;98.40;;;;;;5013744;28;20744;-68
2022/07/03 03:47:55;;;;;;;3.83;2.10;;;21.40;98.40;;;;;;5030063;28;20305;-68
2022/07/03 03:50:24;;;;;;;4.40;1.97;;;21.50;98.50;;;;;;5030537;28;20690;-69
2022/07/03 03:52:51;;;;;;;3.37;2.17;;;21.60;98.50;;;;;;5024296;28;20212;-68
2022/07/03 03:55:18;;;;;;;5.53;2.70;;;21.70;98.20;;;;;;5009935;28;20230;-68
2022/07/03 03:57:45;;;;;;;3.47;2.30;;;21.80;98.40;;;;;;5010717;28;20637;-68
2022/07/03 04:00:13;;;;;;;3.57;2.10;;;21.90;98.20;;;;;;5009318;28;20207;-68
2022/07/03 04:02:40;;;;;;;4.83;2.17;;;21.90;98.10;;;;;;5028554;28;20293;-68
2022/07/03 04:05:07;;;;;;;2.97;2.27;;;22.00;98.50;;;;;;5008482;28;20207;-67
2022/07/03 04:07:35;;;;;;;3.37;2.10;;;22.00;97.90;;;;;;5010345;28;20303;-69
2022/07/03 04:10:02;;;;;;;4.57;2.10;;;22.10;98.20;;;;;;5010252;28;20278;-69
2022/07/03 04:12:29;;;;;;;4.23;2.00;;;22.10;98.00;;;;;;5012838;28;20198;-67
2022/07/03 04:14:58;;;;;;;4.70;2.33;;;22.20;98.20;;;;;;5015817;28;20222;-69
2022/07/03 04:17:25;;;;;;;2.67;2.10;;;22.20;98.20;;;;;;5029962;28;20671;-69
2022/07/03 04:19:52;;;;;;;5.30;2.03;;;22.30;98.10;;;;;;5029858;28;20838;-68
2022/07/03 04:22:19;;;;;;;5.23;2.50;;;22.50;98.10;;;;;;5013968;28;20300;-68
2022/07/03 04:24:47;;;;;;;4.40;2.03;;;22.60;97.90;;;;;;5029748;28;20284;-68
2022/07/03 04:27:14;;;;;;;4.90;2.40;;;22.70;97.70;;;;;;5028378;28;20261;-68
2022/07/03 04:29:41;;;;;;;2.53;1.90;;;22.80;97.40;;;;;;5021402;28;20836;-69
2022/07/03 04:32:09;;;;;;;4.10;1.90;;;22.90;97.50;;;;;;5025345;28;20735;-69
2022/07/03 04:34:36;;;;;;;4.97;2.53;;;23.00;97.50;;;;;;5029436;28;20280;-69
2022/07/03 04:37:03;;;;;;;3.03;2.17;;;23.10;97.40;;;;;;5029150;28;20236;-68
2022/07/03 04:39:30;;;;;;;8.07;3.67;;;23.20;97.30;;;;;;5028345;28;20291;-69
2022/07/03 04:41:58;;;;;;;2.93;2.30;;;23.20;96.70;;;;;;5029074;28;21021;-69
2022/07/03 04:44:25;;;;;;;3.70;2.40;;;23.30;96.00;;;;;;5028845;28;20212;-68
2022/07/03 04:46:52;;;;;;;2.30;1.90;;;23.40;95.90;;;;;;5029061;28;20213;-69
2022/07/03 04:49:19;;;;;;;3.07;2.30;;;23.50;95.90;;;;;;5029724;28;20245;-68
2022/07/03 04:51:46;;;;;;;4.30;2.10;;;23.60;95.80;;;;;;5027950;28;20209;-69
2022/07/03 04:54:12;;;;;;;3.23;1.83;;;23.70;95.40;;;;;;5029642;28;20259;-70
2022/07/03 04:56:39;;;;;;;6.33;2.00;;;23.70;95.10;;;;;;5028343;28;20686;-69
2022/07/03 04:59:08;;;;;;;2.70;1.87;;;23.80;95.10;;;;;;5028946;28;20220;-69
2022/07/03 05:01:34;;;;;;;2.17;1.80;;;23.90;95.10;;;;;;5029173;28;20220;-68
2022/07/03 05:04:01;;;;;;;3.17;1.97;;;24.00;95.20;;;;;;5027803;28;20211;-69
2022/07/03 05:06:28;;;;;;;3.57;1.83;;;24.00;95.50;;;;;;5027350;28;20659;-69
2022/07/03 05:08:56;;;;;;;3.07;2.00;;;24.20;95.60;;;;;;5029257;28;20635;-69
2022/07/03 05:11:23;;;;;;;3.33;1.90;;;24.20;95.00;;;;;;5029373;28;20296;-67
2022/07/03 05:13:50;;;;;;;3.43;1.87;;;24.30;94.70;;;;;;5029057;28;20218;-69
2022/07/03 05:16:18;;;;;;;3.23;1.90;;;24.40;94.50;;;;;;5027941;28;20327;-68
2022/07/03 05:18:45;;;;;;;6.17;2.07;;;24.50;94.50;;;;;;5028782;28;20242;-69
2022/07/03 05:21:12;;;;;;;4.00;2.10;;;24.60;94.20;;;;;;5027432;28;20218;-68
2022/07/03 05:23:39;;;;;;;4.73;2.20;;;24.70;94.40;;;;;;5026865;28;20207;-69
2022/07/03 05:26:05;;;;;;;3.07;2.20;;;24.70;94.30;;;;;;5028736;28;20312;-68
2022/07/03 05:28:32;;;;;;;2.70;1.97;;;24.90;94.20;;;;;;5026740;28;20261;-69
2022/07/03 05:30:59;;;;;;;2.53;1.90;;;25.00;93.90;;;;;;5028616;28;20243;-69
2022/07/03 05:33:28;;;;;;;3.60;2.03;;;25.10;93.70;;;;;;5028559;28;20443;-68
2022/07/03 05:35:55;;;;;;;2.97;1.80;;;25.20;93.40;;;;;;5028435;28;20264;-70
2022/07/03 05:41:03;;;;;;;3.72;1.80;;;25.40;93.10;;;;;;5018969;28;20208;-71
2022/07/03 05:43:30;;;;;;;2.40;1.77;;;25.50;92.80;;;;;;5028452;28;20212;-69
2022/07/03 05:45:57;;;;;;;4.88;2.45;;;25.70;92.80;;;;;;5016971;28;20204;-70
2022/07/03 05:48:24;;;;;;;5.25;2.15;;;25.70;92.70;;;;;;5014823;28;20200;-70
2022/07/03 05:50:52;;;;;;;3.08;2.20;;;25.70;92.70;;;;;;5008567;28;20221;-69
2022/07/03 05:53:19;;;;;;;3.08;2.00;;;25.80;92.70;;;;;;5008456;28;20204;-68
2022/07/03 05:55:46;;;;;;;2.25;2.00;;;25.80;92.10;;;;;;5008507;28;20250;-69
2022/07/03 05:58:13;;;;;;;5.10;2.15;;;25.90;92.00;;;;;;5012435;28;20340;-69
2022/07/03 06:00:40;;;;;;;4.63;3.00;;;25.90;92.00;;;;;;5011404;28;20260;-73
2022/07/03 06:03:07;;;;;;;4.93;2.78;;;25.90;91.70;;;;;;5012594;28;20641;-70
2022/07/03 06:05:34;;;;;;;2.85;2.13;;;25.90;91.60;;;;;;5015561;28;20263;-68
2022/07/03 06:08:03;;;;;;;4.60;2.30;;;25.90;91.90;;;;;;5032060;28;20694;-68
2022/07/03 06:10:30;;;;;;;6.03;2.58;;;25.90;92.30;;;;;;5032025;28;20212;-68
2022/07/03 06:12:57;;;;;;;6.18;3.50;;;25.90;92.60;;;;;;5031774;28;20688;-69
2022/07/03 06:15:24;;;;;;;10.50;4.28;;;25.90;92.70;;;;;;5022423;28;20229;-69
2022/07/03 06:17:51;;;;;;;7.03;2.80;;;25.80;92.60;;;;;;5024376;28;20215;-71
2022/07/03 06:20:18;;;;;;;4.07;2.28;;;25.80;92.50;;;;;;5031661;28;20660;-70
2022/07/03 06:22:45;;;;;;;3.22;2.20;;;25.80;92.80;;;;;;5031685;28;20246;-71
2022/07/03 06:25:14;;;;;;;2.63;1.98;;;25.80;92.70;;;;;;5019526;28;20683;-68
2022/07/03 06:27:42;;;;;;;3.08;2.03;;;25.80;92.50;;;;;;5010071;28;20296;-68
2022/07/03 06:30:10;;;;;;;2.70;1.80;;;25.80;92.40;;;;;;5009245;28;20218;-69
2022/07/03 06:32:37;;;;;;;4.22;2.28;;;25.90;92.30;;;;;;5015434;28;20255;-70
2022/07/03 06:35:05;;;;;;;4.82;2.00;;;25.90;92.30;;;;;;5018596;28;20674;-70
2022/07/03 06:37:32;;;;;;;3.50;2.53;;;25.90;92.00;;;;;;5018910;28;20888;-69
2022/07/03 06:39:59;;;;;;;5.18;2.30;;;26.00;92.10;;;;;;5021135;28;20293;-70
2022/07/03 06:42:27;;;;;;;5.25;2.30;;;26.00;92.00;;;;;;5013290;28;20237;-70
2022/07/03 06:44:54;;;;;;;3.78;2.30;;;26.10;91.70;;;;;;5016347;28;20206;-69
2022/07/03 06:47:21;;;;;;;4.32;2.63;;;26.10;91.50;;;;;;5020804;28;20200;-68
2022/07/03 06:49:48;;;;;;;4.32;2.10;;;26.20;91.40;;;;;;5094502;27;20610;-69
2022/07/03 06:52:15;;;;;;;4.30;2.33;;;26.30;90.80;;;;;;5021505;28;20256;-69
2022/07/03 06:54:43;;;;;;;3.03;2.13;;;26.30;90.40;;;;;;5057977;27;20228;-71
2022/07/03 06:57:10;;;;;;;3.60;2.78;;;26.40;90.70;;;;;;5135627;27;20285;-70
2022/07/03 06:59:38;;;;;;;4.50;3.22;;;26.50;90.40;;;;;;5084324;27;20298;-70
2022/07/03 07:02:06;;;;;;;3.33;2.80;;;26.50;90.20;;;;;;5028156;28;20211;-70
2022/07/03 07:04:33;;;;;;;3.72;2.35;;;26.60;90.20;;;;;;5025611;27;21111;-69
2022/07/03 07:07:00;;;;;;;4.43;2.70;;;26.70;90.30;;;;;;5029183;28;20211;-69
2022/07/03 07:09:27;;;;;;;5.25;2.63;;;26.90;90.40;;;;;;5029091;28;20258;-69
2022/07/03 07:11:54;;;;;;;4.28;2.47;;;26.90;90.40;;;;;;5031101;28;20295;-72
2022/07/03 07:14:21;;;;;;;3.45;2.58;;;27.10;90.10;;;;;;5030805;28;20211;-71
2022/07/03 07:16:49;;;;;;;3.65;2.40;;;27.20;89.70;;;;;;5012750;28;20311;-71
2022/07/03 07:19:16;;;;;;;5.43;2.97;;;27.30;90.30;;;;;;5010760;28;20295;-69
2022/07/03 07:21:43;;;;;;;6.55;2.90;;;27.30;90.50;;;;;;5010743;28;20247;-70
2022/07/03 07:24:10;;;;;;;4.03;3.00;;;27.30;90.10;;;;;;5011300;28;20244;-72
2022/07/03 07:26:36;;;;;;;7.07;3.22;;;27.40;90.00;;;;;;5023443;28;20570;-70
2022/07/03 07:29:03;;;;;;;11.00;3.50;;;27.40;89.80;;;;;;5020883;28;20256;-70
2022/07/03 07:31:30;;;;;;;4.65;2.80;;;27.40;90.00;;;;;;5026575;28;20215;-70
2022/07/03 07:33:58;;;;;;;5.35;3.60;;;27.50;90.00;;;;;;5029545;28;20327;-70
2022/07/03 07:36:25;;;;;;;5.80;3.33;;;27.50;90.20;;;;;;5010625;28;20232;-73
2022/07/03 07:38:52;;;;;;;4.25;3.00;;;27.50;90.10;;;;;;5016855;28;20200;-70
2022/07/03 07:41:19;;;;;;;4.85;2.95;;;27.60;89.40;;;;;;5016535;28;20678;-72
2022/07/03 07:43:46;;;;;;;6.38;3.13;;;27.50;90.10;;;;;;5023426;28;20235;-72
2022/07/03 07:46:13;;;;;;;6.68;3.60;;;27.40;90.30;;;;;;5030213;28;20289;-71
2022/07/03 07:48:40;;;;;;;5.28;3.30;;;27.40;90.00;;;;;;5029554;28;20206;-72
2022/07/03 07:51:08;;;;;;;4.93;3.22;;;27.30;89.80;;;;;;5023269;28;20633;-72
2022/07/03 07:53:35;;;;;;;13.48;3.60;;;27.30;90.20;;;;;;5009146;28;20203;-72
2022/07/03 07:56:02;;;;;;;7.00;3.40;;;27.30;90.60;;;;;;5021284;28;20224;-72
2022/07/03 07:58:29;;;;;;;4.35;2.88;;;27.10;90.20;;;;;;5029962;28;20289;-72
2022/07/03 08:06:26;;;;;;;4.80;3.38;;;27.30;90.40;;;;;;5026961;27;20197;-69
2022/07/03 08:08:53;;;;;;;4.57;3.50;;;27.40;90.00;;;;;;5011490;28;20666;-71
2022/07/03 08:11:20;;;;;;;6.18;3.60;;;27.50;90.20;;;;;;5025922;27;20284;-72
2022/07/03 08:13:47;;;;;;;8.70;3.60;;;27.50;90.70;;;;;;5010617;28;20702;-73
2022/07/03 08:16:14;;;;;;;21.98;4.32;;;27.60;90.90;;;;;;5010323;28;20682;-74
2022/07/03 08:18:41;;;;;;;6.18;3.55;;;27.70;90.80;;;;;;5009992;28;20296;-72
2022/07/03 08:21:08;;;;;;;5.03;3.45;;;27.70;90.50;;;;;;5016637;28;20240;-70
2022/07/03 08:23:36;;;;;;;4.95;3.40;;;27.70;90.50;;;;;;5013203;28;20258;-71
2022/07/03 08:26:03;;;;;;;8.38;4.00;;;27.80;90.70;;;;;;5010345;28;20659;-70
2022/07/03 08:28:30;;;;;;;6.28;4.43;;;27.80;90.40;;;;;;5011065;28;20642;-73
2022/07/03 08:30:57;;;;;;;15.73;11.68;;;27.70;89.70;;;;;;5027219;28;20208;-70
2022/07/03 08:33:24;;;;;;;9.80;3.58;;;27.70;89.70;;;;;;5018318;28;20236;-72
2022/07/03 08:35:51;;;;;;;6.70;3.38;;;27.60;89.20;;;;;;5020346;28;20236;-71
2022/07/03 08:38:18;;;;;;;7.00;4.63;;;27.60;89.90;;;;;;5011171;28;20217;-69
2022/07/03 08:40:47;;;;;;;7.13;4.40;;;27.70;89.10;;;;;;5014297;28;20240;-69
2022/07/03 08:43:16;;;;;;;4.95;3.30;;;27.80;89.40;;;;;;5024434;28;20721;-70
2022/07/03 08:45:43;;;;;;;4.75;3.28;;;27.90;89.40;;;;;;5009893;28;20200;-72
2022/07/03 08:48:11;;;;;;;4.18;3.13;;;27.90;88.70;;;;;;5009909;28;20217;-69
2022/07/03 08:50:40;;;;;;;4.18;3.35;;;28.00;89.00;;;;;;5020144;28;20255;-69
2022/07/03 08:53:07;;;;;;;5.18;3.85;;;28.10;90.00;;;;;;5009066;28;20283;-73
2022/07/03 08:55:35;;;;;;;5.88;4.40;;;28.10;89.00;;;;;;5009357;28;20315;-69
2022/07/03 08:58:05;;;;;;;5.03;3.85;;;28.20;89.20;;;;;;5009435;28;20259;-69
2022/07/03 09:00:33;;;;;;;5.00;3.60;;;28.30;88.70;;;;;;5008338;28;20715;-70
2022/07/03 09:03:04;;;;;;;7.32;4.00;;;28.40;88.70;;;;;;5009493;28;20262;-69
2022/07/03 09:05:31;;;;;;;6.53;3.70;;;28.50;88.20;;;;;;5008442;28;20201;-70
2022/07/03 09:08:00;;;;;;;16.92;4.13;;;28.40;88.10;;;;;;5009512;28;20292;-70
2022/07/03 09:10:27;;;;;;;5.60;3.40;;;28.40;88.10;;;;;;5008866;28;20210;-70
2022/07/03 09:12:54;;;;;;;5.05;3.28;;;28.40;87.70;;;;;;5008218;28;20237;-72
2022/07/03 09:15:22;;;;;;;5.25;3.10;;;28.40;88.40;;;;;;5009112;28;20593;-69
2022/07/03 09:18:00;;;;;;;5.28;3.50;;;28.50;88.40;;;;;;5008952;28;20226;-72
2022/07/03 09:20:32;;;;;;;3.40;3.05;;;28.50;88.30;;;;;;5009439;28;20577;-70
2022/07/03 09:23:16;;;;;;;6.68;3.85;;;28.60;88.30;;;;;;5015326;28;20297;-69
2022/07/03 09:25:58;;;;;;;4.97;3.53;;;28.70;86.60;;;;;;5030615;28;20209;-72
2022/07/03 09:28:41;;;;;;;5.78;3.58;;;28.80;87.30;;;;;;5015706;28;20212;-70
2022/07/03 09:31:11;;;;;;;7.65;3.50;;;28.90;87.80;;;;;;5028799;28;20204;-70
2022/07/03 09:33:51;;;;;;;6.30;3.72;;;28.90;87.60;;;;;;5026518;28;21082;-71
2022/07/03 09:36:18;;;;;;;6.80;3.53;;;28.90;88.20;;;;;;5017567;28;20243;-70
2022/07/03 09:38:46;;;;;;;5.88;4.03;;;28.90;86.70;;;;;;5028863;28;20304;-70
2022/07/03 09:41:13;;;;;;;9.18;4.00;;;28.80;87.50;;;;;;5013595;28;20667;-70
2022/07/03 09:43:43;;;;;;;5.60;3.63;;;28.80;87.70;;;;;;5009004;28;20297;-71
2022/07/03 09:46:12;;;;;;;6.60;3.63;;;28.70;88.30;;;;;;5013603;28;20288;-70
2022/07/03 09:48:40;;;;;;;5.78;3.50;;;28.70;87.40;;;;;;5009286;28;20313;-69
2022/07/03 09:51:13;;;;;;;6.18;3.88;;;28.60;87.50;;;;;;5008728;28;20212;-70
2022/07/03 09:53:55;;;;;;;6.07;3.88;;;28.60;88.50;;;;;;5009001;28;20221;-70
2022/07/03 09:56:23;;;;;;;3.97;3.58;;;28.40;88.60;;;;;;5008737;28;20243;-70
2022/07/03 09:59:08;;;;;;;6.70;3.70;;;28.30;89.20;;;;;;5009079;28;20750;-72
2022/07/03 10:01:38;;;;;;;7.57;3.33;;;28.30;89.50;;;;;;5008978;28;20656;-70
2022/07/03 10:04:13;;;;;;;4.80;3.13;;;28.30;88.70;;;;;;5008183;28;20228;-71
2022/07/03 10:06:51;;;;;;;8.85;3.80;;;28.40;88.20;;;;;;5008403;28;20211;-71
2022/07/03 10:09:19;;;;;;;4.32;3.50;;;28.40;88.80;;;;;;5008465;28;20624;-70
2022/07/03 10:11:46;;;;;;;6.32;3.45;;;28.40;88.70;;;;;;5008702;28;20206;-70
2022/07/03 10:14:15;;;;;;;4.72;3.75;;;28.40;88.70;;;;;;5008518;28;20209;-70
2022/07/03 10:16:44;;;;;;;14.05;3.55;;;28.40;88.30;;;;;;5008609;28;20232;-71
2022/07/03 10:19:15;;;;;;;6.70;3.70;;;28.30;88.60;;;;;;5007482;28;20212;-71
2022/07/03 10:21:44;;;;;;;7.03;3.75;;;28.30;89.50;;;;;;5010481;28;20233;-69
2022/07/03 10:24:13;;;;;;;8.95;5.30;;;28.20;89.90;;;;;;5016896;28;20212;-70
2022/07/03 10:26:42;;;;;;;12.75;6.80;;;28.30;90.10;;;;;;5028810;28;20232;-73
2022/07/03 10:29:15;;;;;;;8.43;5.20;;;28.20;89.60;;;;;;5012519;28;20204;-73
2022/07/03 10:31:47;;;;;;;10.45;4.13;;;28.20;90.00;;;;;;5011753;28;20296;-71
2022/07/03 10:34:18;;;;;;;7.50;4.82;;;28.10;90.90;;;;;;5018009;28;20236;-71
2022/07/03 10:36:47;;;;;;;7.13;4.25;;;27.90;91.40;;;;;;5022155;28;20240;-73
2022/07/03 10:39:21;;;;;;;7.15;3.85;;;27.70;92.00;;;;;;5028108;28;20305;-71
2022/07/03 10:44:51;;;;;;;5.47;3.72;;;27.50;93.10;;;;;;5013911;28;20200;-72
2022/07/03 10:47:39;;;;;;;7.78;4.28;;;27.30;93.60;;;;;;5026965;28;20270;-71
2022/07/03 10:50:09;;;;;;;6.95;3.40;;;27.10;93.70;;;;;;5025537;28;20213;-70
2022/07/03 10:52:36;;;;;;;5.18;3.17;;;27.00;93.90;;;;;;5024665;28;20197;-68
2022/07/03 10:55:06;;;;;;;6.20;3.60;;;26.90;94.30;;;;;;5017030;28;20645;-67
2022/07/03 10:57:33;;;;;;;4.88;3.53;;;26.80;94.20;;;;;;5011875;28;20691;-67
2022/07/03 11:00:14;;;;;;;8.23;3.70;;;26.70;94.30;;;;;;5011830;28;20208;-71
2022/07/03 11:02:45;;;;;;;7.82;3.90;;;26.70;94.90;;;;;;5010055;28;20221;-70
2022/07/03 11:05:14;;;;;;;8.75;5.20;;;26.60;95.50;;;;;;5011348;28;20732;-68
2022/07/03 11:08:03;;;;;;;8.48;4.20;;;26.50;95.90;;;;;;5010877;28;20201;-71
2022/07/03 11:10:32;;;;;;;7.63;4.43;;;26.40;96.50;;;;;;5023132;28;20194;-73
2022/07/03 11:13:00;;;;;;;8.65;5.25;;;26.20;96.90;;;;;;5015966;28;20224;-71
2022/07/03 11:15:29;;;;;;;8.90;4.80;;;26.10;97.40;;;;;;5021175;28;20236;-72
2022/07/03 11:18:18;;;;;;;5.43;4.40;;;26.00;98.00;;;;;;5010726;28;20281;-71
2022/07/03 11:21:18;;;;;;;9.38;4.38;;;25.90;98.00;;;;;;5011284;28;20196;-72
2022/07/03 11:24:06;;;;;;;7.20;4.18;;;25.70;97.30;;;;;;5015355;28;20217;-72
2022/07/03 11:26:33;;;;;;;6.35;3.55;;;25.50;97.30;;;;;;4998313;28;20284;-71
2022/07/03 11:29:00;;;;;;;4.18;3.70;;;25.40;97.20;;;;;;5010984;28;20229;-70
2022/07/03 11:31:27;;;;;;;7.97;4.70;;;25.40;97.00;;;;;;5010411;28;20214;-70
2022/07/03 11:33:59;;;;;;;7.15;4.18;;;25.50;97.10;;;;;;5010133;28;20248;-72
2022/07/03 11:36:28;;;;;;;9.98;5.50;;;25.50;96.90;;;;;;5010815;28;20289;-72
2022/07/03 11:39:06;;;;;;;7.23;4.77;;;25.50;97.00;;;;;;5014306;28;20252;-71
2022/07/03 11:41:45;;;;;;;5.53;4.03;;;25.60;97.20;;;;;;5008924;28;20209;-73
2022/07/03 11:44:16;;;;;;;7.17;3.83;;;25.60;97.30;;;;;;5013472;28;20200;-70
2022/07/03 11:46:49;;;;;;;5.68;4.10;;;25.70;97.30;;;;;;5013853;28;20712;-70
2022/07/03 11:49:19;;;;;;;5.67;4.30;;;25.70;97.10;;;;;;5014664;28;20212;-73
2022/07/03 11:51:57;;;;;;;6.63;4.60;;;25.70;97.40;;;;;;5011220;28;20725;-69
2022/07/03 11:54:24;;;;;;;9.57;4.00;;;25.60;98.30;;;;;;5015000;28;20617;-70
2022/07/03 11:56:51;;;;;;;7.30;4.40;;;25.70;99.50;;;;;;5014906;28;20311;-74
2022/07/03 11:59:19;;;;;;;5.60;3.80;;;25.70;99.90;;;;;;5025592;28;20556;-70
2022/07/03 12:01:47;;;;;;;6.20;3.90;;;25.70;99.90;;;;;;5011151;28;20208;-70
2022/07/03 12:04:15;;;;;;;6.40;3.90;;;25.60;99.90;;;;;;5010672;28;20204;-70
2022/07/03 12:06:45;;;;;;;5.65;3.60;;;25.70;99.90;;;;;;5010396;28;20273;-71
2022/07/03 12:09:17;;;;;;;5.68;3.80;;;25.70;99.90;;;;;;5010689;28;20238;-70
2022/07/03 12:11:54;;;;;;;9.60;4.05;;;25.70;99.90;;;;;;5010244;28;20214;-71
2022/07/03 12:14:42;;;;;;;12.07;5.00;;;25.80;99.90;;;;;;5010556;28;20621;-70
2022/07/03 12:17:11;;;;;;;6.72;3.60;;;25.70;99.90;;;;;;5010224;28;20208;-70
2022/07/03 12:19:38;;;;;;;7.45;4.15;;;25.60;99.90;;;;;;5010533;28;20680;-69
2022/07/03 12:22:07;;;;;;;5.73;3.73;;;25.60;99.90;;;;;;5010256;28;20304;-72
2022/07/03 12:24:34;;;;;;;6.10;3.83;;;25.70;99.90;;;;;;5010057;28;20219;-71
2022/07/03 12:27:04;;;;;;;6.65;3.80;;;25.70;99.90;;;;;;5010244;28;20208;-72
2022/07/03 12:29:33;;;;;;;5.07;3.63;;;25.80;99.90;;;;;;5010433;28;20303;-71
2022/07/03 12:32:00;;;;;;;5.50;3.50;;;25.80;99.90;;;;;;5010217;28;20298;-69
2022/07/03 12:34:27;;;;;;;6.30;3.97;;;25.80;99.90;;;;;;5009897;28;20246;-73
2022/07/03 12:36:58;;;;;;;6.57;4.10;;;25.90;99.90;;;;;;5009947;28;20726;-70
2022/07/03 12:39:42;;;;;;;5.97;3.90;;;25.90;99.90;;;;;;5009812;28;20243;-70
2022/07/03 12:42:16;;;;;;;5.78;4.05;;;25.90;99.90;;;;;;5010142;28;20295;-69
2022/07/03 12:44:43;;;;;;;7.47;4.05;;;25.90;99.90;;;;;;5010295;28;20577;-70
2022/07/03 12:47:10;;;;;;;8.93;3.85;;;25.90;99.90;;;;;;5010153;28;20210;-70
2022/07/03 12:49:37;;;;;;;9.90;3.63;;;25.90;99.90;;;;;;5010124;28;20212;-70
2022/07/03 12:52:06;;;;;;;8.38;4.00;;;25.80;99.90;;;;;;5009902;28;20212;-71
2022/07/03 12:54:36;;;;;;;7.35;4.55;;;25.80;99.90;;;;;;5009549;28;20671;-71
2022/07/03 12:59:16;;;;;;;7.53;4.18;;;25.80;99.90;;;;;;5009533;28;20240;-70
2022/07/03 13:00:02;;;;;;;6.65;4.22;;;25.60;99.90;;;;;;5009556;28;20197;-68
2022/07/03 13:02:29;;;;;;;6.07;3.90;;;25.40;99.90;;;;;;5009942;28;20285;-70
2022/07/03 13:04:58;;;;;;;7.50;3.50;;;25.40;99.90;;;;;;5009482;28;20689;-70
2022/07/03 13:07:30;;;;;;;7.77;4.57;;;25.30;99.90;;;;;;5008852;28;20662;-70
2022/07/03 13:10:01;;;;;;;14.67;7.80;;;25.10;99.90;;;;;;5009604;28;20186;-70
2022/07/03 13:12:28;;;;;;;8.33;4.60;;;25.10;99.90;;;;;;5009358;28;20204;-71